< < Back
Terminal Aerodrome Forecast


Current Version              Previous Versions:   1  2  3  4  5  6  7  8  9  

Terminal Aerodrome Forecast

481
FTUS42 KTAE 240520
TAFTLH
TAF
KTLH 240520Z 2406/2506 20008KT P6SM SCT060=

Latest METAR

619
SAUS80 KWBC 250400 RRF
MTRTLH
METAR KTLH 250453Z AUTO 27003KT 10SM CLR 27/21 A3006 RMK AO2 SLP177
T02670211 403670222


USA.gov is the U.S. government's official web portal to all federal, state and local government web resources and services.